Time;durP1;ratioP1;P1;durP2;ratioP2;P2;SDS_P1;SDS_P2;PMS_P1;PMS_P2;Temp;Humidity;BMP_temperature;BMP_pressure;BME280_temperature;BME280_humidity;BME280_pressure;Samples;Min_cycle;Max_cycle;Signal;HPM_P1;HPM_P2
2024/04/17 00:00:31;;;;;;;29.70;10.10;;;;;;;9.19;54.42;97470.69;67852;1278;1016420;-70
2024/04/17 00:03:55;;;;;;;30.10;9.90;;;;;;;9.23;54.18;97471.08;67815;1278;1016497;-69
2024/04/17 00:06:57;;;;;;;28.60;9.00;;;;;;;9.24;54.28;97469.08;67845;1278;1017094;-70
2024/04/17 00:10:00;;;;;;;30.70;9.70;;;;;;;9.27;54.32;97462.73;67832;1278;1016346;-70
2024/04/17 00:13:02;;;;;;;29.60;10.40;;;;;;;9.30;54.25;97461.46;67821;1278;1016501;-70
2024/04/17 00:16:04;;;;;;;35.80;11.90;;;;;;;9.27;54.18;97455.27;67812;1277;1016312;-69
2024/04/17 00:19:06;;;;;;;42.20;13.40;;;;;;;9.24;54.32;97452.38;67790;1278;1016627;-69
2024/04/17 00:22:08;;;;;;;48.10;13.90;;;;;;;9.23;54.15;97447.36;67800;1278;1018129;-70
2024/04/17 00:25:11;;;;;;;35.40;10.80;;;;;;;9.14;54.47;97446.09;67815;1278;1016356;-69
2024/04/17 00:28:13;;;;;;;29.00;8.50;;;;;;;9.31;53.96;97439.08;67851;1278;1016520;-70
2024/04/17 00:31:15;;;;;;;28.60;9.80;;;;;;;9.34;53.87;97434.98;67833;1278;1016606;-69
2024/04/17 00:34:18;;;;;;;29.30;8.30;;;;;;;9.11;54.45;97430.68;67856;1278;1015918;-70
2024/04/17 00:37:20;;;;;;;26.90;7.80;;;;;;;9.08;54.76;97426.95;67847;1278;1016673;-69
2024/04/17 00:40:22;;;;;;;29.40;8.20;;;;;;;9.00;54.91;97415.32;67870;1278;1016399;-69
2024/04/17 00:43:24;;;;;;;25.50;7.80;;;;;;;9.00;54.91;97412.52;67834;1278;1016333;-70
2024/04/17 00:46:30;;;;;;;26.40;7.70;;;;;;;8.99;54.81;97411.57;67843;1278;1016381;-70
2024/04/17 00:49:35;;;;;;;25.80;7.80;;;;;;;9.03;54.60;97402.52;67805;1278;1016460;-70
2024/04/17 00:52:38;;;;;;;27.30;7.40;;;;;;;9.09;54.70;97405.58;67835;1278;1016244;-71
2024/04/17 00:55:40;;;;;;;26.30;7.60;;;;;;;9.12;54.60;97404.65;67846;1277;1016638;-70
2024/04/17 00:58:42;;;;;;;26.60;7.60;;;;;;;9.11;54.67;97401.17;67857;1278;1016341;-70
2024/04/17 01:01:45;;;;;;;26.30;7.80;;;;;;;9.13;54.33;97401.98;67821;1278;1016312;-70
2024/04/17 01:04:47;;;;;;;25.30;8.50;;;;;;;9.11;54.41;97403.52;67830;1278;1016304;-69
2024/04/17 01:07:49;;;;;;;32.50;8.60;;;;;;;9.05;54.25;97404.65;67812;1278;1016377;-70
2024/04/17 01:10:51;;;;;;;30.00;9.10;;;;;;;8.87;53.93;97402.67;67783;1278;1016262;-69
2024/04/17 01:13:53;;;;;;;26.80;8.60;;;;;;;8.59;54.40;97404.64;67784;1278;1018471;-70
2024/04/17 01:16:56;;;;;;;31.10;9.20;;;;;;;8.42;54.50;97407.09;67843;1278;1016344;-70
2024/04/17 01:19:58;;;;;;;32.40;11.90;;;;;;;8.40;54.29;97399.98;67884;1278;1018964;-70
2024/04/17 01:23:00;;;;;;;39.50;13.90;;;;;;;8.42;54.35;97395.23;67851;1278;1016244;-69
2024/04/17 01:26:02;;;;;;;38.40;12.30;;;;;;;8.48;54.38;97393.27;67840;1278;1016287;-69
2024/04/17 01:29:04;;;;;;;30.70;10.00;;;;;;;8.51;54.27;97392.73;67840;1278;1016518;-70
2024/04/17 01:32:06;;;;;;;35.00;12.40;;;;;;;8.48;54.02;97388.89;67832;1278;1016462;-70
2024/04/17 01:35:09;;;;;;;30.80;9.60;;;;;;;8.26;54.04;97390.70;67843;1278;1016336;-70
2024/04/17 01:38:11;;;;;;;28.70;9.10;;;;;;;8.06;54.40;97388.91;67797;1278;1018468;-70
2024/04/17 01:41:13;;;;;;;27.60;9.00;;;;;;;8.08;54.11;97398.50;67815;1278;1016468;-70
2024/04/17 01:44:15;;;;;;;34.60;11.10;;;;;;;8.09;54.14;97396.98;67809;1278;1016235;-70
2024/04/17 01:47:17;;;;;;;27.60;9.50;;;;;;;8.03;54.29;97392.41;67821;1278;1016349;-70
2024/04/17 01:50:19;;;;;;;25.60;8.20;;;;;;;7.97;54.60;97387.80;67843;1278;1016371;-70
2024/04/17 01:53:22;;;;;;;32.30;9.40;;;;;;;7.91;54.72;97383.31;67811;1278;1016436;-70
2024/04/17 01:56:24;;;;;;;34.30;10.50;;;;;;;7.87;54.42;97381.92;67836;1278;1016407;-71
2024/04/17 01:59:26;;;;;;;29.80;7.90;;;;;;;7.75;54.65;97385.16;67789;1278;1016074;-70
2024/04/17 02:02:31;;;;;;;25.30;7.90;;;;;;;7.74;54.57;97376.70;67840;1278;1016064;-71
2024/04/17 02:05:33;;;;;;;31.50;9.30;;;;;;;7.59;54.57;97374.52;67840;1278;1016388;-70
2024/04/17 02:08:35;;;;;;;33.30;9.80;;;;;;;7.32;54.56;97376.21;67799;1278;1016324;-71
2024/04/17 02:11:38;;;;;;;29.60;9.10;;;;;;;7.18;54.78;97374.41;67822;1277;1016506;-70
2024/04/17 02:14:40;;;;;;;35.90;11.80;;;;;;;7.11;55.18;97370.88;67830;1278;1015894;-70
2024/04/17 02:17:42;;;;;;;42.90;13.80;;;;;;;7.20;55.17;97368.36;67846;1278;1016440;-70
2024/04/17 02:20:45;;;;;;;27.40;7.90;;;;;;;7.23;55.30;97369.06;67844;1278;1016573;-71
2024/04/17 02:23:47;;;;;;;39.40;11.00;;;;;;;7.24;55.11;97365.67;67844;1254;1015915;-70
2024/04/17 02:26:49;;;;;;;30.20;8.70;;;;;;;7.20;55.27;97363.33;67791;1278;1015994;-70
2024/04/17 02:29:52;;;;;;;25.90;7.60;;;;;;;7.06;55.02;97362.61;67821;1278;1016464;-70
2024/04/17 02:32:54;;;;;;;26.20;8.80;;;;;;;6.92;54.51;97365.27;67809;1278;1016424;-70
2024/04/17 02:35:56;;;;;;;36.90;10.60;;;;;;;6.86;54.73;97367.58;67817;1278;1016394;-70
2024/04/17 02:38:58;;;;;;;56.30;15.40;;;;;;;6.83;54.64;97368.67;67819;1278;1016448;-71
2024/04/17 02:42:01;;;;;;;32.30;9.40;;;;;;;6.87;54.81;97366.52;67844;1278;1016286;-70
2024/04/17 02:45:03;;;;;;;24.60;6.90;;;;;;;6.91;54.90;97364.16;67874;1278;1016373;-71
2024/04/17 02:48:05;;;;;;;27.80;7.70;;;;;;;6.88;54.72;97360.73;67848;1278;1016355;-71
2024/04/17 02:51:07;;;;;;;25.90;7.00;;;;;;;6.87;54.99;97359.70;67846;1278;1016361;-71
2024/04/17 02:54:09;;;;;;;42.10;13.20;;;;;;;6.82;54.49;97357.66;67816;1278;1015809;-70
2024/04/17 02:57:11;;;;;;;51.90;18.90;;;;;;;6.62;54.55;97358.28;67790;1278;1016226;-70
2024/04/17 03:00:17;;;;;;;42.70;13.20;;;;;;;6.62;54.69;97357.95;67814;1278;1016622;-71
2024/04/17 03:03:19;;;;;;;35.30;10.10;;;;;;;6.68;54.58;97352.50;67862;1278;1016475;-71
2024/04/17 03:06:21;;;;;;;32.40;9.70;;;;;;;6.75;54.71;97353.25;67807;1278;1016161;-71
2024/04/17 03:09:24;;;;;;;101.00;33.50;;;;;;;6.76;55.06;97356.64;67820;1278;1016413;-70
2024/04/17 03:12:26;;;;;;;81.50;27.50;;;;;;;6.70;54.93;97357.02;67826;1278;1016365;-71
2024/04/17 03:15:28;;;;;;;49.20;16.70;;;;;;;6.54;54.50;97356.77;67802;1278;1016214;-70
2024/04/17 03:18:30;;;;;;;52.20;17.10;;;;;;;6.39;54.84;97352.52;67825;1278;1016480;-70
2024/04/17 03:21:33;;;;;;;76.70;24.00;;;;;;;6.37;54.89;97352.35;67859;1277;1016419;-70
2024/04/17 03:24:35;;;;;;;66.20;20.20;;;;;;;6.42;54.68;97350.13;67828;1278;1016274;-70
2024/04/17 03:27:37;;;;;;;40.90;12.10;;;;;;;6.39;54.77;97348.17;67852;1277;1016465;-71
2024/04/17 03:30:39;;;;;;;31.20;8.70;;;;;;;6.45;54.92;97350.61;67889;1278;1016260;-71
2024/04/17 03:33:41;;;;;;;26.90;8.10;;;;;;;6.47;54.94;97356.75;67814;1278;1016168;-71
2024/04/17 03:36:44;;;;;;;30.10;9.40;;;;;;;6.39;54.58;97360.56;67831;1278;1017666;-71
2024/04/17 03:39:46;;;;;;;30.30;7.70;;;;;;;6.35;54.75;97364.13;67828;1278;1016489;-71
2024/04/17 03:42:48;;;;;;;24.70;7.30;;;;;;;6.32;54.94;97370.02;67844;1278;1018571;-71
2024/04/17 03:45:50;;;;;;;25.20;7.00;;;;;;;6.26;54.90;97374.13;67799;1278;1015962;-71
2024/04/17 03:48:52;;;;;;;28.10;6.40;;;;;;;6.33;55.10;97381.06;67843;1278;1016515;-71
2024/04/17 03:51:55;;;;;;;24.60;7.90;;;;;;;6.50;55.09;97387.61;67844;1278;1015968;-70
2024/04/17 03:54:57;;;;;;;;;;;;;;;6.58;54.93;97395.19;65282;1278;6373926;-70
2024/04/17 03:57:59;;;;;;;25.70;7.20;;;;;;;6.47;54.87;97399.44;67833;1278;1016336;-70
2024/04/17 04:01:01;;;;;;;27.80;8.30;;;;;;;6.43;55.18;97404.77;67874;1278;1016239;-71
2024/04/17 04:04:03;;;;;;;32.10;9.60;;;;;;;6.40;54.78;97408.76;67875;1278;1016404;-70
2024/04/17 04:07:06;;;;;;;27.90;9.70;;;;;;;6.41;54.85;97418.91;67845;1278;1016731;-70
2024/04/17 04:10:08;;;;;;;28.40;10.20;;;;;;;6.55;54.99;97421.80;67821;1278;1016044;-70
2024/04/17 04:13:10;;;;;;;29.10;10.80;;;;;;;6.77;55.15;97424.70;67817;1278;1015890;-70
2024/04/17 04:16:13;;;;;;;35.00;11.70;;;;;;;7.01;55.20;97428.63;67809;1278;1016328;-70
2024/04/17 04:19:15;;;;;;;26.70;8.90;;;;;;;7.28;55.15;97426.77;67837;1278;1016721;-70
2024/04/17 04:22:17;;;;;;;26.90;9.00;;;;;;;7.52;54.74;97425.48;67873;1278;1016251;-69
2024/04/17 04:25:19;;;;;;;23.90;7.60;;;;;;;7.61;54.72;97422.90;67841;1278;1016273;-70
2024/04/17 04:28:22;;;;;;;29.00;7.80;;;;;;;7.91;54.88;97422.15;67861;1278;1016525;-70
2024/04/17 04:31:24;;;;;;;29.80;9.80;;;;;;;8.10;54.62;97427.19;67876;1278;1016427;-70
2024/04/17 04:34:26;;;;;;;28.20;9.20;;;;;;;8.36;54.89;97427.04;67830;1278;1015840;-70
2024/04/17 04:37:29;;;;;;;27.00;9.10;;;;;;;8.69;54.76;97424.67;67833;1278;1016097;-70
2024/04/17 04:40:32;;;;;;;23.50;6.90;;;;;;;9.01;54.15;97432.87;67843;1278;1016532;-70
2024/04/17 04:43:34;;;;;;;25.80;6.90;;;;;;;9.15;53.81;97434.70;67853;1277;1016395;-71
2024/04/17 04:46:36;;;;;;;24.70;7.30;;;;;;;9.36;54.06;97433.15;67817;1278;1016372;-70
2024/04/17 04:49:39;;;;;;;22.70;7.40;;;;;;;9.55;54.09;97431.95;67795;1278;1016424;-70
2024/04/17 04:52:42;;;;;;;;;;;;;;;9.93;53.96;97432.48;67828;1278;1016541;-70
2024/04/17 04:55:44;;;;;;;28.70;8.30;;;;;;;10.35;54.05;97433.14;67865;1278;1016529;-70
2024/04/17 04:58:46;;;;;;;26.50;8.50;;;;;;;10.55;54.15;97438.31;67841;1278;1016252;-69
2024/04/17 05:01:48;;;;;;;26.00;8.80;;;;;;;10.59;53.96;97437.44;67838;1278;1016513;-70
2024/04/17 05:04:51;;;;;;;28.00;9.50;;;;;;;10.50;53.81;97438.19;67838;1278;1016084;-70
2024/04/17 05:07:53;;;;;;;30.30;8.20;;;;;;;10.26;54.76;97439.05;67831;1278;1016297;-69
2024/04/17 05:10:55;;;;;;;24.80;7.40;;;;;;;10.03;55.42;97441.78;67813;1278;1018371;-70
2024/04/17 05:13:57;;;;;;;26.00;6.80;;;;;;;9.81;56.35;97448.50;67856;1278;1016555;-69
2024/04/17 05:16:59;;;;;;;21.90;7.20;;;;;;;9.62;57.11;97448.88;67825;1278;1016441;-70
2024/04/17 05:20:02;;;;;;;23.80;7.50;;;;;;;9.54;57.76;97451.46;67855;1278;1019048;-70
2024/04/17 05:23:04;;;;;;;25.60;7.60;;;;;;;9.49;58.31;97453.59;67874;1278;1016628;-69
2024/04/17 05:26:06;;;;;;;27.00;8.70;;;;;;;9.54;58.50;97452.45;67848;1278;1016588;-70
2024/04/17 05:29:08;;;;;;;26.40;8.00;;;;;;;9.62;58.92;97454.77;67849;1278;1016485;-70
2024/04/17 05:32:11;;;;;;;25.70;8.00;;;;;;;9.67;59.69;97456.68;67839;1278;1016497;-70
2024/04/17 05:35:14;;;;;;;21.70;6.80;;;;;;;9.79;60.00;97463.08;67874;1278;1016525;-70
2024/04/17 05:38:16;;;;;;;20.40;6.50;;;;;;;9.73;60.39;97464.98;67866;1278;1016288;-70
2024/04/17 05:41:18;;;;;;;22.80;7.30;;;;;;;9.68;60.74;97472.52;67866;1278;1016471;-70
2024/04/17 05:44:20;;;;;;;23.70;7.00;;;;;;;9.52;61.45;97479.68;67859;1278;1016387;-70
2024/04/17 05:47:23;;;;;;;26.00;7.30;;;;;;;9.38;62.11;97482.88;67833;1278;1018565;-69
2024/04/17 05:50:25;;;;;;;23.90;6.90;;;;;;;9.33;62.64;97486.02;67821;1277;1016411;-70
2024/04/17 05:53:27;;;;;;;23.50;7.40;;;;;;;9.44;62.61;97490.27;67828;1278;1019532;-70
2024/04/17 05:56:29;;;;;;;26.20;7.70;;;;;;;9.46;62.98;97493.41;67839;1278;1015889;-70
2024/04/17 05:59:32;;;;;;;20.80;7.20;;;;;;;9.52;61.96;97497.31;67860;1278;1016406;-70
2024/04/17 06:02:34;;;;;;;23.60;7.70;;;;;;;9.52;61.92;97496.58;67870;1278;1016511;-70
2024/04/17 06:05:36;;;;;;;25.70;7.90;;;;;;;9.65;61.87;97497.19;67871;1277;1016423;-70
2024/04/17 06:08:39;;;;;;;24.60;7.60;;;;;;;9.64;62.47;97504.38;67851;1278;1016390;-69
2024/04/17 06:11:41;;;;;;;25.50;9.00;;;;;;;9.62;62.17;97505.97;67806;1278;1016371;-70
2024/04/17 06:14:43;;;;;;;28.20;10.10;;;;;;;9.68;62.45;97505.13;67820;1278;1016120;-70
2024/04/17 06:17:46;;;;;;;28.50;10.20;;;;;;;9.80;62.54;97507.18;67868;1278;1016399;-70
2024/04/17 06:20:48;;;;;;;29.40;11.10;;;;;;;9.71;63.45;97518.48;67884;1278;1016519;-70
2024/04/17 06:23:50;;;;;;;33.10;11.10;;;;;;;9.70;62.83;97521.73;67886;1278;1016481;-70
2024/04/17 06:26:52;;;;;;;28.20;10.50;;;;;;;9.69;63.69;97525.99;67863;1278;1016324;-70
2024/04/17 06:29:55;;;;;;;30.80;13.10;;;;;;;9.74;63.69;97529.48;67857;1278;1016509;-70
2024/04/17 06:32:57;;;;;;;;;;;;;;;9.80;63.39;97524.33;67815;1277;1016294;-69
2024/04/17 06:36:00;;;;;;;29.90;12.70;;;;;;;9.98;62.60;97526.89;67824;1278;1016433;-70
2024/04/17 06:39:02;;;;;;;31.30;13.20;;;;;;;10.11;62.47;97525.48;67866;1278;1016382;-70
2024/04/17 06:42:04;;;;;;;36.10;15.30;;;;;;;10.28;61.44;97530.64;67880;1278;1015986;-70
2024/04/17 06:45:06;;;;;;;36.50;16.30;;;;;;;10.31;61.49;97531.81;67889;1278;1016197;-69
2024/04/17 06:48:09;;;;;;;38.00;16.30;;;;;;;10.31;60.90;97534.78;67884;1278;1019739;-70
2024/04/17 06:51:11;;;;;;;38.40;17.20;;;;;;;10.21;61.87;97537.44;67840;1278;1016286;-70
2024/04/17 06:54:13;;;;;;;42.80;18.70;;;;;;;10.07;62.72;97540.64;67849;1278;1015938;-70
2024/04/17 06:57:15;;;;;;;42.10;18.30;;;;;;;10.14;62.20;97540.00;67789;1278;1016370;-70
2024/04/17 07:00:18;;;;;;;41.10;17.80;;;;;;;10.25;61.60;97540.64;67818;1278;1016401;-70
2024/04/17 07:03:20;;;;;;;36.40;16.80;;;;;;;10.50;61.06;97544.30;67873;1278;1016350;-70
2024/04/17 07:06:22;;;;;;;40.20;17.70;;;;;;;10.59;60.41;97545.11;67885;1277;1016500;-70
2024/04/17 07:09:24;;;;;;;40.90;19.50;;;;;;;10.60;61.11;97540.66;67870;1278;1016269;-70
2024/04/17 07:12:27;;;;;;;36.40;17.80;;;;;;;10.95;60.02;97538.70;67866;1278;1016939;-69
2024/04/17 07:15:29;;;;;;;36.40;16.80;;;;;;;11.10;59.01;97543.20;67830;1278;1016010;-70
2024/04/17 07:18:31;;;;;;;33.20;15.20;;;;;;;11.26;59.10;97543.46;67842;1278;1016378;-70
2024/04/17 07:21:33;;;;;;;34.30;15.10;;;;;;;11.32;57.68;97544.48;67828;1278;1016387;-70
2024/04/17 07:24:36;;;;;;;26.20;12.00;;;;;;;11.24;57.98;97551.54;67837;1278;1016387;-70
2024/04/17 07:27:39;;;;;;;28.80;13.40;;;;;;;11.15;58.13;97554.16;67878;1278;1015737;-70
2024/04/17 07:30:41;;;;;;;25.10;10.70;;;;;;;11.10;58.16;97556.57;67844;1278;1016147;-69
2024/04/17 07:33:47;;;;;;;24.00;10.10;;;;;;;11.07;58.57;97560.82;67840;1278;1016449;-70
2024/04/17 07:36:49;;;;;;;22.60;9.80;;;;;;;10.90;58.92;97569.40;67828;1278;1016220;-70
2024/04/17 07:39:52;;;;;;;22.40;9.60;;;;;;;10.72;58.59;97569.03;67835;1278;1016457;-69
2024/04/17 07:42:54;;;;;;;21.00;8.20;;;;;;;10.60;58.34;97564.73;67819;1278;1016344;-70
2024/04/17 07:45:56;;;;;;;21.80;8.50;;;;;;;10.54;58.91;97563.17;67838;1278;1016449;-70
2024/04/17 07:48:58;;;;;;;22.20;7.80;;;;;;;10.59;58.22;97563.48;67882;1278;1016494;-70
2024/04/17 07:52:00;;;;;;;23.80;7.70;;;;;;;10.59;58.15;97564.48;67862;1278;1016475;-70
2024/04/17 07:55:03;;;;;;;22.60;7.30;;;;;;;10.57;58.32;97568.39;67866;1278;1018490;-70
2024/04/17 07:58:05;;;;;;;19.10;6.70;;;;;;;10.80;57.55;97565.10;67866;1278;1016482;-70
2024/04/17 08:01:07;;;;;;;19.70;7.10;;;;;;;11.07;56.86;97568.98;67856;1278;1015834;-70
2024/04/17 08:04:09;;;;;;;20.40;7.00;;;;;;;11.09;56.82;97569.92;67841;1278;1016372;-69
2024/04/17 08:07:12;;;;;;;22.10;7.10;;;;;;;11.03;56.50;97572.67;67855;1277;1016449;-70
2024/04/17 08:10:15;;;;;;;21.10;6.80;;;;;;;10.96;56.89;97574.30;67883;1278;1017196;-70
2024/04/17 08:13:17;;;;;;;20.90;7.30;;;;;;;10.98;56.85;97574.15;67866;1278;1016243;-70
2024/04/17 08:16:19;;;;;;;23.00;7.00;;;;;;;11.06;56.53;97580.65;67864;1278;1018860;-69
2024/04/17 08:19:21;;;;;;;17.20;5.90;;;;;;;11.18;56.00;97584.05;67865;1278;1016360;-70
2024/04/17 08:22:23;;;;;;;20.60;5.90;;;;;;;11.16;54.91;97583.53;67850;1278;1016097;-70
2024/04/17 08:25:26;;;;;;;19.70;6.40;;;;;;;11.22;55.29;97585.45;67830;1278;1016442;-70
2024/04/17 08:28:28;;;;;;;18.70;5.90;;;;;;;11.20;55.29;97581.78;67859;1278;1016317;-70
2024/04/17 08:31:30;;;;;;;19.60;6.70;;;;;;;11.27;54.91;97581.38;67854;1277;1016476;-70
2024/04/17 08:34:33;;;;;;;17.70;6.00;;;;;;;11.40;54.95;97581.98;67868;1278;1016466;-70
2024/04/17 08:37:36;;;;;;;18.90;6.70;;;;;;;11.55;54.81;97582.30;67841;1278;1016460;-69
2024/04/17 08:40:39;;;;;;;20.90;6.40;;;;;;;11.64;54.56;97582.83;67860;1278;1016401;-70
2024/04/17 08:43:42;;;;;;;18.30;6.60;;;;;;;11.57;54.53;97583.91;67818;1278;1016367;-70
2024/04/17 08:46:44;;;;;;;18.50;6.20;;;;;;;11.48;54.37;97582.88;67856;1278;1016385;-70
2024/04/17 08:49:46;;;;;;;19.20;6.30;;;;;;;11.36;55.57;97583.91;67848;1278;1015838;-70
2024/04/17 08:52:48;;;;;;;21.60;7.20;;;;;;;11.43;55.08;97585.64;67878;1278;1016044;-69
2024/04/17 08:55:50;;;;;;;19.60;6.90;;;;;;;11.55;55.71;97584.98;67841;1278;1016442;-69
2024/04/17 08:58:53;;;;;;;20.90;7.50;;;;;;;11.71;54.58;97585.33;67865;1278;1016164;-69
2024/04/17 09:01:55;;;;;;;20.30;6.90;;;;;;;11.59;54.75;97593.54;67871;1278;1015807;-69
2024/04/17 09:04:58;;;;;;;20.20;6.20;;;;;;;11.45;54.56;97592.79;67856;1278;1016458;-70
2024/04/17 09:08:00;;;;;;;;;;;;;;;11.45;55.05;97595.05;67861;1278;1016861;-69
2024/04/17 09:11:02;;;;;;;20.10;7.00;;;;;;;11.51;55.05;97597.23;67827;1278;1016097;-70
2024/04/17 09:14:04;;;;;;;22.30;7.00;;;;;;;11.48;55.09;97601.30;67831;1278;1015830;-70
2024/04/17 09:17:07;;;;;;;19.50;6.90;;;;;;;11.38;55.41;97604.59;67881;1278;1016460;-69
2024/04/17 09:20:09;;;;;;;23.00;8.10;;;;;;;11.36;55.92;97608.06;67859;1278;1016439;-70
2024/04/17 09:23:11;;;;;;;23.50;9.00;;;;;;;11.51;55.47;97612.59;67869;1278;1016231;-70
2024/04/17 09:26:14;;;;;;;21.90;7.10;;;;;;;11.63;54.61;97619.50;67846;1278;1016410;-70
2024/04/17 09:29:16;;;;;;;20.80;7.40;;;;;;;11.49;53.93;97616.44;67834;1278;1015956;-70
2024/04/17 09:32:18;;;;;;;18.90;6.40;;;;;;;11.51;54.83;97616.43;67831;1278;1016189;-70
2024/04/17 09:35:20;;;;;;;17.90;6.20;;;;;;;11.70;54.56;97626.43;67841;1278;1016337;-70
2024/04/17 09:38:23;;;;;;;16.90;5.70;;;;;;;11.63;53.14;97629.14;67867;1278;1016251;-69
2024/04/17 09:41:25;;;;;;;17.70;5.30;;;;;;;11.78;54.09;97630.61;67869;1278;1016249;-70
2024/04/17 09:44:27;;;;;;;17.60;5.40;;;;;;;12.13;52.55;97632.41;67873;1278;1016277;-69
2024/04/17 09:47:29;;;;;;;16.70;5.20;;;;;;;12.40;52.48;97632.70;67857;1278;1016400;-69
2024/04/17 09:50:31;;;;;;;19.10;5.40;;;;;;;12.64;50.69;97627.65;67866;1278;1016414;-69
2024/04/17 09:53:34;;;;;;;18.70;5.80;;;;;;;12.78;50.37;97632.77;67853;1278;1016019;-69
2024/04/17 09:56:36;;;;;;;17.30;5.20;;;;;;;12.70;50.18;97629.21;67861;1278;1016115;-70
2024/04/17 09:59:38;;;;;;;14.20;4.70;;;;;;;12.84;50.52;97634.36;67827;1278;1016130;-69
2024/04/17 10:02:40;;;;;;;14.80;5.50;;;;;;;12.79;50.18;97633.13;67840;1278;1016069;-70
2024/04/17 10:05:42;;;;;;;12.40;4.30;;;;;;;12.86;49.25;97629.59;67829;1278;1016662;-70
2024/04/17 10:08:45;;;;;;;14.60;4.80;;;;;;;12.89;49.58;97627.39;67822;1278;1016303;-69
2024/04/17 10:11:50;;;;;;;16.30;5.10;;;;;;;13.04;50.09;97628.33;67855;1278;1016088;-70
2024/04/17 10:14:52;;;;;;;14.80;4.20;;;;;;;13.07;48.78;97628.73;67818;1278;1016482;-70
2024/04/17 10:17:55;;;;;;;13.80;4.40;;;;;;;13.21;48.87;97624.36;67830;1278;1016386;-69
2024/04/17 10:20:57;;;;;;;13.80;4.40;;;;;;;13.39;48.65;97623.39;67826;1278;1016170;-69
2024/04/17 10:23:59;;;;;;;15.90;4.50;;;;;;;13.49;48.51;97630.08;67846;1278;1017370;-69
2024/04/17 10:27:01;;;;;;;15.60;4.50;;;;;;;13.43;48.69;97630.23;67877;1278;1016401;-69
2024/04/17 10:30:03;;;;;;;13.20;4.60;;;;;;;13.53;48.81;97626.85;67895;1278;1016132;-69
2024/04/17 10:33:06;;;;;;;19.30;5.00;;;;;;;13.86;48.70;97626.20;67849;1278;1016052;-69
2024/04/17 10:36:08;;;;;;;17.10;4.50;;;;;;;13.97;48.27;97625.16;67867;1278;1018327;-69
2024/04/17 10:39:10;;;;;;;14.20;4.20;;;;;;;13.89;46.78;97628.48;67844;1278;1016444;-69
2024/04/17 10:42:13;;;;;;;;;;;;;;;13.49;46.80;97627.77;67836;1278;1017050;-69
2024/04/17 10:45:15;;;;;;;11.80;4.00;;;;;;;13.28;47.66;97627.58;67836;1278;1018478;-69
2024/04/17 10:48:17;;;;;;;13.50;4.20;;;;;;;13.16;48.13;97630.18;67887;1278;1016377;-69
2024/04/17 10:51:20;;;;;;;14.80;4.30;;;;;;;13.10;47.95;97633.44;67894;1278;1016455;-69
2024/04/17 10:54:23;;;;;;;11.10;3.90;;;;;;;12.97;48.39;97633.34;67826;1278;1016444;-69
2024/04/17 10:57:25;;;;;;;16.30;4.50;;;;;;;12.98;48.90;97635.20;67853;1276;1015721;-69
2024/04/17 11:00:29;;;;;;;16.30;4.80;;;;;;;13.05;48.63;97637.04;67851;1278;1016497;-70
2024/04/17 11:03:32;;;;;;;13.20;4.00;;;;;;;12.99;48.25;97635.92;67849;1277;1018103;-69
2024/04/17 11:06:34;;;;;;;15.10;4.80;;;;;;;13.00;47.74;97632.73;67862;1278;1016455;-69
2024/04/17 11:09:36;;;;;;;16.20;4.60;;;;;;;13.09;47.24;97633.55;67879;1254;1015700;-69
2024/04/17 11:12:38;;;;;;;10.90;3.90;;;;;;;13.39;47.18;97632.38;67859;1278;1016729;-69
2024/04/17 11:15:40;;;;;;;12.30;4.00;;;;;;;13.78;46.75;97630.20;67829;1278;1016459;-69
2024/04/17 11:18:43;;;;;;;13.50;4.10;;;;;;;14.06;46.45;97628.81;67832;1278;1016047;-69
2024/04/17 11:21:45;;;;;;;12.00;3.40;;;;;;;14.21;46.32;97627.30;67845;1278;1016375;-69
2024/04/17 11:24:48;;;;;;;12.50;3.50;;;;;;;14.13;45.85;97631.89;67898;1278;1016482;-69
2024/04/17 11:27:50;;;;;;;7.20;2.80;;;;;;;13.92;45.97;97636.33;67864;1278;1016408;-70
2024/04/17 11:30:52;;;;;;;8.20;2.90;;;;;;;13.71;46.40;97641.40;67872;1278;1016374;-69
2024/04/17 11:33:55;;;;;;;;;;;;;;;13.43;46.76;97641.30;67844;1278;1018280;-69
2024/04/17 11:36:57;;;;;;;9.50;3.20;;;;;;;13.50;47.09;97639.70;67825;1278;1016443;-69
2024/04/17 11:40:01;;;;;;;9.80;3.20;;;;;;;13.88;46.32;97635.06;67845;1278;1016342;-69
2024/04/17 11:43:03;;;;;;;8.30;3.10;;;;;;;14.47;46.15;97633.92;67854;1278;1016267;-69
2024/04/17 11:46:05;;;;;;;11.00;3.40;;;;;;;15.46;44.54;97627.61;67824;1278;1016479;-69
2024/04/17 11:49:07;;;;;;;7.30;2.80;;;;;;;16.23;43.82;97627.45;67862;1278;1016438;-69
2024/04/17 11:52:10;;;;;;;10.40;2.90;;;;;;;15.98;42.34;97624.42;67892;1278;1016424;-69
2024/04/17 11:55:12;;;;;;;7.40;2.50;;;;;;;15.43;42.66;97631.48;67886;1278;1015977;-69
2024/04/17 11:58:14;;;;;;;8.90;2.90;;;;;;;15.07;43.12;97635.02;67870;1278;1016386;-69
2024/04/17 12:01:17;;;;;;;8.00;2.90;;;;;;;14.59;43.45;97640.00;67876;1278;1016498;-69
2024/04/17 12:04:19;;;;;;;8.50;2.70;;;;;;;14.51;44.59;97642.50;67809;1278;1016369;-69
2024/04/17 12:07:22;;;;;;;7.40;2.80;;;;;;;14.68;44.02;97638.98;67827;1277;1016452;-69
2024/04/17 12:10:27;;;;;;;8.90;3.00;;;;;;;15.02;44.26;97627.95;67850;1278;1016449;-69
2024/04/17 12:13:29;;;;;;;8.70;3.20;;;;;;;15.47;44.25;97630.40;67840;1278;1016448;-69
2024/04/17 12:16:31;;;;;;;8.60;3.00;;;;;;;15.88;43.38;97630.46;67858;1278;1016452;-69
2024/04/17 12:19:33;;;;;;;8.20;2.70;;;;;;;16.53;42.79;97629.14;67839;1278;1016393;-69
2024/04/17 12:22:35;;;;;;;6.90;2.60;;;;;;;16.73;41.25;97630.61;67822;1278;1016231;-69
2024/04/17 12:28:58;;;;;;;13.80;3.10;;;;;;;16.23;41.45;97631.61;67809;1278;1016448;-69
2024/04/17 12:32:00;;;;;;;6.90;2.60;;;;;;;15.87;42.01;97633.51;67856;1277;1016427;-69
2024/04/17 12:35:03;;;;;;;9.60;2.70;;;;;;;15.65;42.09;97633.51;67867;1278;1016451;-69
2024/04/17 12:38:06;;;;;;;8.50;2.80;;;;;;;15.15;41.61;97642.15;67814;1278;1016494;-69
2024/04/17 12:41:08;;;;;;;11.80;2.80;;;;;;;14.87;42.30;97644.02;67871;1278;1019744;-69
2024/04/17 12:44:10;;;;;;;8.10;2.90;;;;;;;14.73;42.63;97644.50;67863;1278;1018154;-69
2024/04/17 12:47:13;;;;;;;10.60;3.30;;;;;;;14.49;43.77;97648.84;67880;1278;1016220;-69
2024/04/17 12:50:15;;;;;;;9.80;3.30;;;;;;;14.41;44.46;97651.00;67847;1278;1016510;-69
2024/04/17 12:53:17;;;;;;;13.20;3.70;;;;;;;14.33;45.12;97652.48;67869;1278;1016246;-69
2024/04/17 12:56:20;;;;;;;14.70;4.10;;;;;;;14.44;45.44;97652.35;67836;1278;1018258;-69
2024/04/17 12:59:22;;;;;;;13.00;4.20;;;;;;;14.62;45.02;97655.19;67841;1278;1016440;-69
2024/04/17 13:02:24;;;;;;;11.60;4.00;;;;;;;14.67;44.96;97656.65;67842;1278;1016462;-69
2024/04/17 13:05:26;;;;;;;16.40;4.40;;;;;;;14.57;44.86;97657.07;67829;1278;1016446;-69
2024/04/17 13:08:28;;;;;;;14.90;4.30;;;;;;;14.59;45.43;97654.95;67861;1278;1016456;-69
2024/04/17 13:11:31;;;;;;;14.10;4.30;;;;;;;14.55;45.53;97655.32;67875;1278;1019351;-69
2024/04/17 13:14:33;;;;;;;12.50;4.30;;;;;;;14.53;46.24;97653.88;67864;1278;1018659;-69
2024/04/17 13:17:35;;;;;;;15.50;4.50;;;;;;;14.63;45.72;97653.91;67880;1278;1018011;-69
2024/04/17 13:20:37;;;;;;;12.10;4.10;;;;;;;14.65;46.08;97656.11;67845;1278;1016419;-69
2024/04/17 13:23:40;;;;;;;12.70;4.10;;;;;;;14.49;45.95;97657.83;67835;1278;1016729;-69
2024/04/17 13:26:42;;;;;;;20.80;4.60;;;;;;;14.60;46.01;97654.33;67870;1278;1016839;-69
2024/04/17 13:29:44;;;;;;;12.70;4.00;;;;;;;14.94;45.76;97648.96;67838;1278;1017607;-69
2024/04/17 13:32:46;;;;;;;11.60;4.00;;;;;;;15.46;45.54;97648.95;67798;1278;1018974;-69
2024/04/17 13:35:49;;;;;;;12.30;3.70;;;;;;;15.94;44.68;97646.67;67832;1278;1016533;-69
2024/04/17 13:38:53;;;;;;;14.10;4.00;;;;;;;16.23;44.26;97646.85;67855;1278;1016270;-68
2024/04/17 13:41:55;;;;;;;13.80;4.20;;;;;;;16.25;44.17;97648.78;67861;1278;1016537;-69
2024/04/17 13:44:58;;;;;;;10.00;3.40;;;;;;;16.16;43.75;97651.63;67853;1278;1016464;-69
2024/04/17 13:48:00;;;;;;;9.30;3.10;;;;;;;15.83;43.36;97648.31;67830;1278;1018009;-69
2024/04/17 13:51:02;;;;;;;10.50;3.10;;;;;;;15.25;43.85;97653.11;67833;1278;1016881;-69
2024/04/17 13:54:04;;;;;;;7.60;2.60;;;;;;;14.64;45.73;97664.54;67848;1278;1016317;-69
2024/04/17 13:57:07;;;;;;;7.20;2.40;;;;;;;14.07;48.68;97668.08;67835;1278;1016471;-69